BrazilFixed distance
La Mision Brazil - Short Mision 55 Kms
20 May2017
Distance
55km
Finishers
11998 men21 women
Winning time
7:02:20h
Median pace
5.08km/h
Pace distribution
119 finishers · 3.59–7.81 km/h · mean 5.23
Every finisher ran the same 55 km course, so these paces are directly comparable.
Histogram of finisher pace. 119 finishers ranged from 3.59 to 7.81 kilometres per hour, with a mean of 5.23 and a median of 5.08. The busiest band is 5.0 to 5.5 kilometres per hour, with 28 finishers.
Results
Ranks 1–50 of 119
| Rank | Runner | Time | Pace | Cat. | Placing |
|---|---|---|---|---|---|
| 1 | 7:02:20h | 7.81 | M23 | 1st M · 1st M23 | |
| 2 | Go On Outdoor Team | 7:07:54h | 7.71 | M35 | 2nd M · 1st M35 |
| 3 | Salomon
Brasil/Tendênc... | 7:18:06h | 7.53 | M35 | 3rd M · 2nd M35 |
| 4 | 7:45:47h | 7.08 | M35 | 4th M · 3rd M35 | |
| 5 | 7:49:51h | 7.02 | M35 | 5th M · 4th M35 | |
| 6 | 7:49:52h | 7.02 | M23 | 6th M · 2nd M23 | |
| 7 | Curtlo Lobo Guara | 8:08:52h | 6.75 | M23 | 7th M · 3rd M23 |
| 8 | Oficina Multisport | 8:10:17h | 6.73 | M35 | 8th M · 5th M35 |
| 9 | Go On Outdoor Team | 8:10:34h | 6.73 | M23 | 9th M · 4th M23 |
| 10 | WF Uphill | 8:10:39h | 6.73 | M23 | 10th M · 5th M23 |
| 11 | BMB Running Team | 8:15:27h | 6.66 | M23 | 11th M · 6th M23 |
| 12 | N., N.UnknownMan | 8:18:23h | 6.62 | — | 12th M |
| 13 | Rafael Guedes
Assessor... | 8:25:02h | 6.53 | M23 | 13th M · 7th M23 |
| 14 | 8:29:38h | 6.47 | M40 | 14th M · 1st M40 | |
| 15 | D-Run Salomon | 8:38:03h | 6.37 | M45 | 15th M · 1st M45 |
| 16 | 8:38:03h | 6.37 | M35 | 15th M · 6th M35 | |
| 17 | 8:40:19h | 6.34 | M35 | 17th M · 7th M35 | |
| 18 | 8:41:35h | 6.33 | M35 | 18th M · 8th M35 | |
| 19 | 8:42:48h | 6.31 | W45 | 1st F · 1st W45 | |
| 20 | SME Passa Quatro | 8:44:39h | 6.29 | M23 | 19th M · 8th M23 |
| 21 | Oficina Multisport | 8:44:53h | 6.29 | M23 | 20th M · 9th M23 |
| 22 | 8:46:46h | 6.26 | M23 | 21st M · 10th M23 | |
| 23 | 8:46:47h | 6.26 | M40 | 22nd M · 2nd M40 | |
| 24 | Iaza Trail Running Team | 8:49:09h | 6.24 | M35 | 23rd M · 9th M35 |
| 25 | 8:53:30h | 6.19 | M23 | 24th M · 11th M23 | |
| 26 | Guenoa | 9:01:22h | 6.10 | M45 | 25th M · 2nd M45 |
| 27 | Solo | 9:03:47h | 6.07 | M35 | 26th M · 10th M35 |
| 28 | Fernando FlechaOficina... | 9:10:49h | 5.99 | M23 | 27th M · 12th M23 |
| 29 | Tendência Outdoor | 9:15:07h | 5.95 | M23 | 28th M · 13th M23 |
| 30 | Upfit | 9:30:14h | 5.79 | M50 | 29th M · 1st M50 |
| 31 | Curtlo Lobo Guara 4Any1 | 9:30:38h | 5.78 | W35 | 2nd F · 1st W35 |
| 32 | 9:42:17h | 5.67 | M35 | 30th M · 11th M35 | |
| 33 | FC Trail | 9:43:56h | 5.65 | M35 | 31st M · 12th M35 |
| 34 | RF Toldos Londrinai | 9:46:36h | 5.63 | M45 | 32nd M · 3rd M45 |
| 35 | Upfit | 9:46:56h | 5.62 | W35 | 3rd F · 2nd W35 |
| 36 | 9:53:50h | 5.56 | M45 | 33rd M · 4th M45 | |
| 37 | 9:55:18h | 5.54 | W35 | 4th F · 3rd W35 | |
| 38 | BPM Correjapa | 10:02:36h | 5.48 | M35 | 34th M · 13th M35 |
| 39 | SE ELA Corre Eu
Corro | 10:04:47h | 5.46 | M23 | 35th M · 14th M23 |
| 40 | 10:04:50h | 5.46 | M23 | 36th M · 15th M23 | |
| 41 | LÁ Cachasa | 10:08:23h | 5.42 | M23 | 37th M · 16th M23 |
| 42 | 10:08:23h | 5.42 | M23 | 37th M · 16th M23 | |
| 43 | 10:09:04h | 5.42 | M35 | 39th M · 14th M35 | |
| 44 | Oficina Multisport | 10:15:12h | 5.36 | M23 | 40th M · 18th M23 |
| 45 | Rafacunha | 10:16:05h | 5.36 | M23 | 41st M · 19th M23 |
| 46 | SO Nois | 10:16:05h | 5.36 | M35 | 41st M · 15th M35 |
| 47 | 10:16:05h | 5.36 | M23 | 41st M · 19th M23 | |
| 48 | 10:16:41h | 5.35 | M40 | 44th M · 3rd M40 | |
| 49 | 10:16:57h | 5.35 | M23 | 45th M · 21st M23 | |
| 50 | 10:17:44h | 5.34 | W23 | 5th F · 1st W23 |
- 11st M · 1st M23Time7:02:20hPace7.81Cat.M23
- 2Go On Outdoor Team2nd M · 1st M35Time7:07:54hPace7.71Cat.M35
- 3Salomon Brasil/Tendênc...3rd M · 2nd M35Time7:18:06hPace7.53Cat.M35
- 44th M · 3rd M35Time7:45:47hPace7.08Cat.M35
- 55th M · 4th M35Time7:49:51hPace7.02Cat.M35
- 66th M · 2nd M23Time7:49:52hPace7.02Cat.M23
- 7Curtlo Lobo Guara7th M · 3rd M23Time8:08:52hPace6.75Cat.M23
- 8Oficina Multisport8th M · 5th M35Time8:10:17hPace6.73Cat.M35
- 9Go On Outdoor Team9th M · 4th M23Time8:10:34hPace6.73Cat.M23
- 10WF Uphill10th M · 5th M23Time8:10:39hPace6.73Cat.M23
- 11BMB Running Team11th M · 6th M23Time8:15:27hPace6.66Cat.M23
- 12N., N.UnknownMan12th MTime8:18:23hPace6.62
- 13Rafael Guedes Assessor...13th M · 7th M23Time8:25:02hPace6.53Cat.M23
- 1414th M · 1st M40Time8:29:38hPace6.47Cat.M40
- 15D-Run Salomon15th M · 1st M45Time8:38:03hPace6.37Cat.M45
- 1615th M · 6th M35Time8:38:03hPace6.37Cat.M35
- 1717th M · 7th M35Time8:40:19hPace6.34Cat.M35
- 1818th M · 8th M35Time8:41:35hPace6.33Cat.M35
- 191st F · 1st W45Time8:42:48hPace6.31Cat.W45
- 20SME Passa Quatro19th M · 8th M23Time8:44:39hPace6.29Cat.M23
- 21Oficina Multisport20th M · 9th M23Time8:44:53hPace6.29Cat.M23
- 2221st M · 10th M23Time8:46:46hPace6.26Cat.M23
- 2322nd M · 2nd M40Time8:46:47hPace6.26Cat.M40
- 24Iaza Trail Running Team23rd M · 9th M35Time8:49:09hPace6.24Cat.M35
- 2524th M · 11th M23Time8:53:30hPace6.19Cat.M23
- 26Guenoa25th M · 2nd M45Time9:01:22hPace6.10Cat.M45
- 27Solo26th M · 10th M35Time9:03:47hPace6.07Cat.M35
- 28Fernando FlechaOficina...27th M · 12th M23Time9:10:49hPace5.99Cat.M23
- 29Tendência Outdoor28th M · 13th M23Time9:15:07hPace5.95Cat.M23
- 30Upfit29th M · 1st M50Time9:30:14hPace5.79Cat.M50
- 31Curtlo Lobo Guara 4Any12nd F · 1st W35Time9:30:38hPace5.78Cat.W35
- 3230th M · 11th M35Time9:42:17hPace5.67Cat.M35
- 33FC Trail31st M · 12th M35Time9:43:56hPace5.65Cat.M35
- 34RF Toldos Londrinai32nd M · 3rd M45Time9:46:36hPace5.63Cat.M45
- 35Upfit3rd F · 2nd W35Time9:46:56hPace5.62Cat.W35
- 3633rd M · 4th M45Time9:53:50hPace5.56Cat.M45
- 374th F · 3rd W35Time9:55:18hPace5.54Cat.W35
- 38BPM Correjapa34th M · 13th M35Time10:02:36hPace5.48Cat.M35
- 39SE ELA Corre Eu Corro35th M · 14th M23Time10:04:47hPace5.46Cat.M23
- 4036th M · 15th M23Time10:04:50hPace5.46Cat.M23
- 41LÁ Cachasa37th M · 16th M23Time10:08:23hPace5.42Cat.M23
- 4237th M · 16th M23Time10:08:23hPace5.42Cat.M23
- 4339th M · 14th M35Time10:09:04hPace5.42Cat.M35
- 44Oficina Multisport40th M · 18th M23Time10:15:12hPace5.36Cat.M23
- 45Rafacunha41st M · 19th M23Time10:16:05hPace5.36Cat.M23
- 46SO Nois41st M · 15th M35Time10:16:05hPace5.36Cat.M35
- 4741st M · 19th M23Time10:16:05hPace5.36Cat.M23
- 4844th M · 3rd M40Time10:16:41hPace5.35Cat.M40
- 4945th M · 21st M23Time10:16:57hPace5.35Cat.M23
- 505th F · 1st W23Time10:17:44hPace5.34Cat.W23
Showing ranks 1–50 of 119